Time;durP1;ratioP1;P1;durP2;ratioP2;P2;SDS_P1;SDS_P2;PMS_P1;PMS_P2;Temp;Humidity;BMP_temperature;BMP_pressure;BME280_temperature;BME280_humidity;BME280_pressure;Samples;Min_cycle;Max_cycle;Signal;HPM_P1;HPM_P2
2023/06/25 00:02:09;;;;;;;0.20;0.20;;;;;;;13.38;96.54;99729.16;5084838;28;20148;-69
2023/06/25 00:04:35;;;;;;;0.15;0.15;;;;;;;13.36;97.04;99736.88;5104651;28;20161;-69
2023/06/25 00:07:02;;;;;;;0.20;0.20;;;;;;;13.32;96.94;99731.16;5103502;28;20054;-68
2023/06/25 00:09:30;;;;;;;0.20;0.20;;;;;;;13.33;97.11;99733.59;5105280;28;20503;-70
2023/06/25 00:11:56;;;;;;;;;;;;;;;13.32;96.87;99722.94;5088742;28;20075;-69
2023/06/25 00:14:22;;;;;;;0.10;0.10;;;;;;;13.36;96.34;99740.44;5083649;28;20439;-69
2023/06/25 00:16:48;;;;;;;0.10;0.10;;;;;;;13.31;96.16;99737.75;5082378;28;20047;-71
2023/06/25 00:19:17;;;;;;;0.20;0.20;;;;;;;13.31;96.31;99740.50;5083823;28;20472;-71
2023/06/25 00:21:43;;;;;;;0.20;0.20;;;;;;;13.29;96.10;99746.28;5083062;28;20065;-70
2023/06/25 00:24:09;;;;;;;0.20;0.20;;;;;;;13.25;96.23;99741.66;5088265;28;20427;-70
2023/06/25 00:26:37;;;;;;;0.10;0.10;;;;;;;13.27;96.12;99742.22;5102477;28;20096;-68
2023/06/25 00:29:03;;;;;;;;;;;;;;;13.25;96.01;99742.50;5086937;28;20040;-70
2023/06/25 00:31:29;;;;;;;0.10;0.10;;;;;;;13.29;95.61;99748.22;5106283;28;19946;-70
2023/06/25 00:33:55;;;;;;;0.20;0.20;;;;;;;13.28;94.98;99743.84;5084590;28;20082;-69
2023/06/25 00:36:22;;;;;;;0.10;0.10;;;;;;;13.23;95.24;99741.97;5098354;28;20691;-70
2023/06/25 00:38:49;;;;;;;0.10;0.10;;;;;;;13.25;94.80;99734.25;5086127;28;20150;-68
2023/06/25 00:41:16;;;;;;;;;;;;;;;13.23;95.13;99741.16;5087061;28;20048;-70
2023/06/25 00:43:44;;;;;;;0.10;0.10;;;;;;;13.23;95.20;99736.50;5083505;28;19924;-70
2023/06/25 00:46:13;;;;;;;0.10;0.10;;;;;;;13.28;95.35;99732.88;5083166;28;20597;-70
2023/06/25 00:48:40;;;;;;;0.10;0.10;;;;;;;13.31;95.54;99732.28;5082752;28;20135;-70
2023/06/25 00:51:11;;;;;;;0.10;0.10;;;;;;;13.32;95.29;99740.19;5081250;28;20054;-71
2023/06/25 00:53:38;;;;;;;0.17;0.17;;;;;;;13.37;95.27;99738.53;5083551;28;20100;-70
2023/06/25 00:56:04;;;;;;;0.10;0.10;;;;;;;13.38;95.15;99740.97;5088311;28;20146;-70
2023/06/25 00:58:34;;;;;;;0.10;0.10;;;;;;;13.40;94.76;99740.66;5063061;28;20509;-70
2023/06/25 01:01:06;;;;;;;0.10;0.10;;;;;;;13.37;94.10;99733.84;5064155;28;20080;-71
2023/06/25 01:03:40;;;;;;;0.10;0.10;;;;;;;13.36;93.44;99729.44;5083933;28;20051;-71
2023/06/25 01:06:12;;;;;;;0.10;0.10;;;;;;;13.38;93.48;99729.97;5083070;28;20112;-70
2023/06/25 01:08:39;;;;;;;0.20;0.20;;;;;;;13.38;93.35;99737.41;5083370;28;20117;-69
2023/06/25 01:11:05;;;;;;;0.10;0.10;;;;;;;13.37;93.10;99731.09;5064609;28;20075;-71
2023/06/25 01:13:32;;;;;;;0.10;0.10;;;;;;;13.38;92.74;99732.72;5095730;28;20051;-71
2023/06/25 01:15:58;;;;;;;0.10;0.10;;;;;;;13.40;93.15;99737.94;5100642;28;20051;-70
2023/06/25 01:18:26;;;;;;;0.10;0.10;;;;;;;13.41;92.94;99734.88;5082875;28;20131;-71
2023/06/25 01:20:56;;;;;;;0.20;0.20;;;;;;;13.42;92.88;99738.44;5082490;28;20048;-71
2023/06/25 01:23:24;;;;;;;0.10;0.10;;;;;;;13.45;93.13;99746.94;5087772;28;20514;-71
2023/06/25 01:25:50;;;;;;;0.20;0.20;;;;;;;13.45;92.32;99733.22;5083987;28;20549;-70
2023/06/25 01:28:20;;;;;;;0.20;0.20;;;;;;;13.46;92.09;99739.50;5091346;28;20055;-70
2023/06/25 01:30:47;;;;;;;0.20;0.20;;;;;;;13.47;91.88;99743.88;5065319;28;20501;-71
2023/06/25 01:33:16;;;;;;;0.10;0.10;;;;;;;13.51;91.98;99747.69;5094151;28;20459;-71
2023/06/25 01:35:42;;;;;;;0.20;0.20;;;;;;;13.56;91.93;99749.53;5080255;28;20044;-70
2023/06/25 01:38:08;;;;;;;0.10;0.10;;;;;;;13.60;92.29;99751.41;5064748;28;20067;-71
2023/06/25 01:40:36;;;;;;;0.10;0.10;;;;;;;13.66;92.58;99752.16;5081045;28;20044;-70
2023/06/25 01:43:02;;;;;;;0.10;0.10;;;;;;;13.71;92.45;99754.00;5094199;28;20240;-71
2023/06/25 01:45:28;;;;;;;0.15;0.15;;;;;;;13.77;91.75;99757.50;5102954;28;20048;-71
2023/06/25 01:47:55;;;;;;;0.17;0.17;;;;;;;13.74;91.82;99756.16;5104676;28;20467;-71
2023/06/25 01:50:21;;;;;;;0.10;0.10;;;;;;;13.74;91.85;99754.25;5083247;28;20040;-70
2023/06/25 01:52:47;;;;;;;0.20;0.20;;;;;;;13.78;91.57;99761.88;5048896;28;20052;-69
2023/06/25 01:55:14;;;;;;;0.20;0.20;;;;;;;13.79;91.33;99753.31;5084931;28;20831;-70
2023/06/25 01:57:41;;;;;;;0.20;0.20;;;;;;;13.86;91.16;99761.19;5079531;28;20059;-70
2023/06/25 02:00:11;;;;;;;;;;;;;;;13.91;90.98;99761.13;5100280;28;20044;-69
2023/06/25 02:02:41;;;;;;;0.17;0.17;;;;;;;13.96;90.47;99761.06;5059568;28;21830;-70
2023/06/25 02:05:08;;;;;;;0.20;0.20;;;;;;;13.97;89.41;99759.09;5063359;28;20048;-70
2023/06/25 02:07:34;;;;;;;0.20;0.20;;;;;;;14.00;89.17;99759.34;5074833;28;20306;-70
2023/06/25 02:10:01;;;;;;;0.20;0.20;;;;;;;14.01;88.14;99762.91;5083544;28;20302;-70
2023/06/25 02:12:31;;;;;;;0.20;0.20;;;;;;;14.00;87.75;99764.03;5082594;28;20083;-70
2023/06/25 02:14:59;;;;;;;0.52;0.30;;;;;;;13.99;86.87;99765.16;5081303;28;20054;-70
2023/06/25 02:17:25;;;;;;;0.20;0.20;;;;;;;13.99;87.36;99765.94;5063408;28;20075;-70
2023/06/25 02:19:52;;;;;;;0.20;0.20;;;;;;;14.02;87.37;99768.09;5079251;28;20418;-70
2023/06/25 02:22:18;;;;;;;0.20;0.20;;;;;;;14.05;87.63;99769.44;5084126;28;20047;-70
2023/06/25 02:24:44;;;;;;;0.17;0.17;;;;;;;14.07;87.22;99772.69;5080891;28;20058;-71
2023/06/25 02:27:11;;;;;;;0.20;0.20;;;;;;;14.08;87.09;99768.81;5075489;28;20098;-69
2023/06/25 02:29:37;;;;;;;0.20;0.20;;;;;;;14.15;87.84;99772.03;5088851;28;20048;-70
2023/06/25 02:32:05;;;;;;;0.20;0.20;;;;;;;14.26;87.69;99775.44;5071490;28;20351;-71
2023/06/25 02:34:31;;;;;;;0.20;0.20;;;;;;;14.31;87.34;99777.28;5105143;28;21025;-69
2023/06/25 02:36:57;;;;;;;0.25;0.25;;;;;;;14.36;87.44;99768.94;5104517;28;20066;-71
2023/06/25 02:39:24;;;;;;;0.20;0.20;;;;;;;14.50;87.06;99776.41;5106362;28;20047;-71
2023/06/25 02:41:50;;;;;;;0.20;0.20;;;;;;;14.60;86.88;99782.53;5106920;28;20051;-70
2023/06/25 02:44:17;;;;;;;0.20;0.20;;;;;;;14.66;86.59;99776.94;5104452;28;20577;-70
2023/06/25 02:46:44;;;;;;;0.20;0.20;;;;;;;14.72;85.76;99782.09;5088438;28;20052;-69
2023/06/25 02:49:11;;;;;;;0.20;0.20;;;;;;;14.82;85.21;99778.31;5052222;28;20051;-70
2023/06/25 02:51:37;;;;;;;;;;;;;;;14.91;85.45;99783.97;5068098;28;20135;-70
2023/06/25 02:54:03;;;;;;;0.20;0.20;;;;;;;15.00;84.25;99786.81;5083032;28;20462;-70
2023/06/25 02:56:30;;;;;;;0.20;0.20;;;;;;;15.11;83.74;99788.25;5095524;28;20109;-70
2023/06/25 02:58:56;;;;;;;0.20;0.20;;;;;;;15.20;83.77;99793.84;5085913;28;20047;-70
2023/06/25 03:01:22;;;;;;;0.20;0.20;;;;;;;15.31;84.08;99787.00;5066967;28;20534;-69
2023/06/25 03:03:48;;;;;;;0.20;0.20;;;;;;;15.38;83.87;99781.09;5084062;28;20048;-69
2023/06/25 03:06:16;;;;;;;0.20;0.20;;;;;;;15.44;83.50;99779.06;5086680;28;20036;-72
2023/06/25 03:08:42;;;;;;;0.20;0.20;;;;;;;15.52;83.80;99788.53;5082775;28;20078;-71
2023/06/25 03:11:09;;;;;;;0.20;0.20;;;;;;;15.54;83.62;99789.88;5068730;28;20043;-70
2023/06/25 03:13:36;;;;;;;0.20;0.20;;;;;;;15.50;83.21;99790.78;5069247;28;20048;-71
2023/06/25 03:16:02;;;;;;;0.20;0.20;;;;;;;15.49;81.95;99791.91;5084465;28;20047;-70
2023/06/25 03:18:29;;;;;;;0.20;0.20;;;;;;;15.47;81.26;99794.16;5101561;28;20158;-70
2023/06/25 03:20:55;;;;;;;0.30;0.30;;;;;;;15.44;82.10;99790.88;5101453;28;20047;-70
2023/06/25 03:23:22;;;;;;;0.20;0.20;;;;;;;15.42;82.48;99792.31;5105569;28;20043;-70
2023/06/25 03:25:50;;;;;;;0.20;0.20;;;;;;;15.39;81.92;99787.44;5083557;28;20089;-70
2023/06/25 03:28:23;;;;;;;0.20;0.20;;;;;;;15.37;80.77;99784.97;5103148;28;20051;-71
2023/06/25 03:30:49;;;;;;;0.20;0.20;;;;;;;15.39;80.46;99798.44;5083976;28;20047;-70
2023/06/25 03:33:17;;;;;;;0.22;0.22;;;;;;;15.42;79.94;99797.84;5048727;28;20400;-70
2023/06/25 03:35:43;;;;;;;0.20;0.20;;;;;;;15.49;79.58;99805.69;5087643;28;20086;-71
2023/06/25 03:38:10;;;;;;;0.22;0.22;;;;;;;15.51;79.36;99789.66;5084137;28;20052;-69
2023/06/25 03:40:39;;;;;;;0.20;0.20;;;;;;;15.56;79.22;99792.28;5080490;28;20109;-69
2023/06/25 03:43:05;;;;;;;0.20;0.20;;;;;;;15.63;79.36;99789.94;5082663;28;20121;-70
2023/06/25 03:45:33;;;;;;;0.20;0.20;;;;;;;15.72;79.22;99801.06;5096967;28;20051;-70
2023/06/25 03:47:59;;;;;;;0.20;0.20;;;;;;;15.80;79.08;99800.31;5103223;28;20125;-69
2023/06/25 03:50:26;;;;;;;0.22;0.22;;;;;;;15.84;78.73;99795.00;5091072;28;20048;-70
2023/06/25 03:52:52;;;;;;;0.20;0.20;;;;;;;15.90;78.87;99798.50;5051567;28;20048;-70
2023/06/25 03:55:18;;;;;;;0.20;0.20;;;;;;;15.91;78.07;99800.91;5093796;28;20055;-69
2023/06/25 03:57:47;;;;;;;0.20;0.20;;;;;;;15.94;78.17;99805.84;5103556;28;20453;-69
2023/06/25 04:00:13;;;;;;;0.30;0.30;;;;;;;16.02;77.26;99804.28;5102670;27;20510;-69
2023/06/25 04:02:40;;;;;;;0.28;0.28;;;;;;;16.03;76.81;99805.91;5099576;28;20043;-69
2023/06/25 04:05:06;;;;;;;0.20;0.20;;;;;;;16.10;75.77;99799.97;5085610;28;20044;-71
2023/06/25 04:07:33;;;;;;;0.20;0.20;;;;;;;16.19;75.05;99813.81;5082422;28;20067;-71
2023/06/25 04:09:59;;;;;;;0.20;0.20;;;;;;;16.19;73.85;99803.59;5103882;28;20062;-70
2023/06/25 04:12:25;;;;;;;0.20;0.20;;;;;;;16.26;72.65;99811.44;5083933;28;20562;-70
2023/06/25 04:14:54;;;;;;;0.20;0.20;;;;;;;16.29;71.46;99814.38;5100104;28;20054;-71
2023/06/25 04:17:20;;;;;;;0.30;0.30;;;;;;;16.34;71.58;99827.25;5086232;28;20047;-71
2023/06/25 04:19:47;;;;;;;0.30;0.30;;;;;;;16.37;70.90;99812.81;5102599;28;20313;-71
2023/06/25 04:22:13;;;;;;;0.30;0.30;;;;;;;16.44;70.89;99817.91;5088053;28;20072;-71
2023/06/25 04:24:39;;;;;;;0.30;0.30;;;;;;;16.48;69.83;99818.09;5101914;28;20134;-69
2023/06/25 04:27:06;;;;;;;0.30;0.30;;;;;;;16.49;69.33;99815.00;5094620;28;20083;-71
2023/06/25 04:29:32;;;;;;;0.30;0.30;;;;;;;16.50;68.86;99816.63;5062008;28;20052;-71
2023/06/25 04:32:03;;;;;;;0.20;0.20;;;;;;;16.53;68.73;99815.19;5047907;28;20052;-71
2023/06/25 04:34:32;;;;;;;0.22;0.22;;;;;;;16.54;67.85;99809.34;5066278;28;20046;-71
2023/06/25 04:36:58;;;;;;;0.20;0.20;;;;;;;16.54;68.23;99801.06;5045621;28;20168;-71
2023/06/25 04:39:25;;;;;;;0.20;0.20;;;;;;;16.65;67.98;99803.56;5073846;28;20037;-71
2023/06/25 04:41:55;;;;;;;0.30;0.30;;;;;;;16.71;67.87;99807.84;5060796;28;20058;-71
2023/06/25 04:44:22;;;;;;;0.30;0.30;;;;;;;16.76;67.81;99809.63;5094446;28;20047;-68
2023/06/25 04:46:48;;;;;;;0.20;0.20;;;;;;;16.82;67.52;99808.38;5069409;28;20044;-71
2023/06/25 04:49:17;;;;;;;0.20;0.20;;;;;;;16.86;66.91;99803.84;5045282;28;20039;-69
2023/06/25 04:51:45;;;;;;;0.30;0.30;;;;;;;16.77;66.62;99808.50;5070037;28;20589;-71
2023/06/25 04:54:11;;;;;;;;;;;;;;;16.81;67.93;99810.31;5046224;28;20082;-70
2023/06/25 04:56:37;;;;;;;0.25;0.25;;;;;;;16.89;68.19;99807.94;5067870;28;19959;-70
2023/06/25 04:59:03;;;;;;;0.25;0.25;;;;;;;16.88;67.62;99812.63;5082767;28;20059;-70
2023/06/25 05:01:29;;;;;;;0.30;0.30;;;;;;;16.81;67.50;99795.72;5082336;28;20488;-71
2023/06/25 05:03:55;;;;;;;0.30;0.30;;;;;;;16.94;67.33;99802.28;5083435;28;20051;-69
2023/06/25 05:06:23;;;;;;;0.20;0.20;;;;;;;17.04;67.45;99809.47;5083526;28;20052;-69
2023/06/25 05:08:49;;;;;;;;;;;;;;;17.13;67.74;99816.66;5082556;28;20067;-71
2023/06/25 05:11:15;;;;;;;0.30;0.30;;;;;;;17.12;67.72;99809.53;5082515;28;19924;-69
2023/06/25 05:13:42;;;;;;;0.30;0.30;;;;;;;17.13;67.54;99802.84;5080019;28;20068;-71
2023/06/25 05:16:08;;;;;;;0.20;0.20;;;;;;;17.17;66.16;99797.53;5084299;28;20048;-70
2023/06/25 05:18:34;;;;;;;0.28;0.28;;;;;;;17.30;66.90;99804.06;5082889;28;20086;-70
2023/06/25 05:21:00;;;;;;;0.30;0.30;;;;;;;17.36;65.24;99794.50;5098991;28;20043;-70
2023/06/25 05:23:36;;;;;;;0.30;0.30;;;;;;;17.35;64.86;99798.41;5104651;28;20391;-70
2023/06/25 05:26:03;;;;;;;0.22;0.22;;;;;;;17.35;65.41;99792.03;5089577;28;20070;-71
2023/06/25 05:28:29;;;;;;;0.20;0.20;;;;;;;17.35;63.86;99787.34;5092820;28;20043;-69
2023/06/25 05:30:55;;;;;;;0.20;0.20;;;;;;;17.37;61.58;99789.78;5073498;28;20044;-70
2023/06/25 05:33:21;;;;;;;0.30;0.30;;;;;;;17.36;61.21;99797.25;5096920;28;20839;-70
2023/06/25 05:35:47;;;;;;;0.28;0.28;;;;;;;17.32;60.13;99799.03;5071555;28;20118;-71
2023/06/25 05:38:13;;;;;;;0.20;0.20;;;;;;;17.32;60.99;99787.97;5088255;28;20052;-70
2023/06/25 05:40:41;;;;;;;0.20;0.20;;;;;;;17.47;60.57;99796.94;5100509;28;20483;-70
2023/06/25 05:43:06;;;;;;;;;;;;;;;17.49;62.60;99791.94;5098728;28;20054;-71
2023/06/25 05:45:33;;;;;;;0.20;0.20;;;;;;;17.54;61.52;99783.47;5098593;28;19924;-71
2023/06/25 05:47:59;;;;;;;0.20;0.20;;;;;;;17.53;60.38;99784.63;5091944;28;20048;-71
2023/06/25 05:50:25;;;;;;;0.30;0.30;;;;;;;17.49;60.81;99783.66;5080705;28;20051;-71
2023/06/25 05:52:52;;;;;;;0.20;0.20;;;;;;;17.52;60.83;99794.84;5093087;28;20044;-71
2023/06/25 05:55:18;;;;;;;0.22;0.22;;;;;;;17.60;60.37;99795.19;5096609;28;20441;-71
2023/06/25 05:57:46;;;;;;;0.30;0.30;;;;;;;17.56;59.19;99789.50;5081377;28;20060;-71
2023/06/25 06:00:13;;;;;;;0.20;0.20;;;;;;;17.55;59.06;99788.66;5084414;28;20454;-70
2023/06/25 06:02:40;;;;;;;0.20;0.20;;;;;;;17.56;58.39;99789.50;5081175;28;20523;-72
2023/06/25 06:05:06;;;;;;;0.20;0.20;;;;;;;17.43;57.90;99778.25;5085239;28;20054;-71
2023/06/25 06:07:33;;;;;;;0.30;0.30;;;;;;;17.50;58.23;99776.97;5083662;28;20044;-71
2023/06/25 06:09:59;;;;;;;0.25;0.25;;;;;;;17.51;58.05;99784.94;5091514;28;20511;-71
2023/06/25 06:12:25;;;;;;;0.30;0.30;;;;;;;17.50;58.23;99772.25;5097025;28;20510;-70
2023/06/25 06:14:54;;;;;;;0.25;0.25;;;;;;;17.53;58.99;99773.56;5103136;28;20047;-70
2023/06/25 06:17:20;;;;;;;0.20;0.20;;;;;;;17.59;57.23;99780.56;5086703;28;20051;-71
2023/06/25 06:19:46;;;;;;;0.20;0.20;;;;;;;17.64;57.09;99768.53;5087853;28;20422;-70
2023/06/25 06:22:13;;;;;;;0.30;0.30;;;;;;;17.81;56.36;99773.28;5084231;28;20109;-71
2023/06/25 06:24:39;;;;;;;0.22;0.22;;;;;;;17.85;57.13;99774.25;5082623;28;20071;-70
2023/06/25 06:27:06;;;;;;;0.30;0.30;;;;;;;18.04;56.79;99773.13;5072122;28;20313;-70
2023/06/25 06:29:32;;;;;;;0.30;0.30;;;;;;;18.22;55.93;99771.19;5066556;28;20048;-71
2023/06/25 06:32:00;;;;;;;0.30;0.30;;;;;;;18.39;56.23;99779.47;5068411;28;20072;-71
2023/06/25 06:34:26;;;;;;;0.30;0.30;;;;;;;18.53;54.75;99773.72;5070867;28;20044;-70
2023/06/25 06:36:52;;;;;;;0.30;0.30;;;;;;;18.66;55.26;99780.22;5086806;28;20059;-70
2023/06/25 06:39:19;;;;;;;0.30;0.30;;;;;;;18.84;55.45;99780.16;5087877;28;20088;-71
2023/06/25 06:41:45;;;;;;;0.30;0.30;;;;;;;19.01;53.98;99781.25;5084792;28;20098;-71
2023/06/25 06:44:13;;;;;;;0.30;0.30;;;;;;;19.14;54.01;99777.47;5099632;28;20641;-71
2023/06/25 06:46:40;;;;;;;0.30;0.30;;;;;;;19.27;53.45;99786.69;5095923;28;20440;-72
2023/06/25 06:49:08;;;;;;;0.30;0.30;;;;;;;19.32;51.42;99783.72;5085574;28;20418;-71
2023/06/25 06:51:37;;;;;;;0.30;0.30;;;;;;;19.26;51.49;99779.50;5107673;28;20036;-71
2023/06/25 06:54:03;;;;;;;0.30;0.30;;;;;;;19.24;52.13;99788.16;5076396;28;20536;-70
2023/06/25 06:56:29;;;;;;;0.30;0.30;;;;;;;19.35;52.36;99783.03;5065675;28;20060;-71
2023/06/25 06:58:55;;;;;;;0.30;0.30;;;;;;;19.47;51.43;99774.03;5080558;28;20054;-71
2023/06/25 07:01:22;;;;;;;0.30;0.30;;;;;;;19.70;51.11;99776.47;5064335;28;20049;-70
2023/06/25 07:03:48;;;;;;;0.30;0.30;;;;;;;19.93;51.04;99782.53;5073103;28;20043;-70
2023/06/25 07:06:16;;;;;;;0.30;0.30;;;;;;;20.13;49.24;99785.63;5093887;28;20301;-71
2023/06/25 07:08:42;;;;;;;0.30;0.30;;;;;;;20.06;48.92;99785.38;5104602;28;20047;-71
2023/06/25 07:11:08;;;;;;;0.30;0.30;;;;;;;20.03;48.58;99786.03;5087069;28;20108;-70
2023/06/25 07:13:35;;;;;;;0.30;0.30;;;;;;;20.14;49.23;99781.72;5104637;28;20468;-72
2023/06/25 07:16:01;;;;;;;0.30;0.30;;;;;;;20.26;49.13;99783.72;5101131;28;20044;-71
2023/06/25 07:18:26;;;;;;;0.30;0.30;;;;;;;;;;5093482;28;20194;-71
2023/06/25 07:20:53;;;;;;;0.30;0.30;;;;;;;20.58;47.47;99784.06;5091242;28;20048;-71
2023/06/25 07:23:21;;;;;;;0.30;0.30;;;;;;;20.74;47.40;99781.41;5084080;28;20040;-71
2023/06/25 07:25:47;;;;;;;0.30;0.30;;;;;;;20.96;46.40;99785.75;5066639;28;20040;-71
2023/06/25 07:28:13;;;;;;;0.30;0.30;;;;;;;21.05;45.51;99791.22;5090625;28;20134;-70
2023/06/25 07:30:40;;;;;;;0.30;0.30;;;;;;;21.01;45.09;99787.50;5066084;28;20048;-69
2023/06/25 07:33:06;;;;;;;0.30;0.30;;;;;;;20.97;44.70;99778.25;5083364;28;20067;-70
2023/06/25 07:35:32;;;;;;;0.30;0.30;;;;;;;20.95;44.44;99780.56;5083432;28;20564;-69
2023/06/25 07:37:59;;;;;;;0.40;0.40;;;;;;;21.18;43.67;99778.16;5083374;28;20044;-69
2023/06/25 07:40:26;;;;;;;0.30;0.30;;;;;;;21.33;43.52;99784.19;5083209;28;20436;-70
2023/06/25 07:42:52;;;;;;;0.30;0.30;;;;;;;21.43;43.48;99780.91;5083182;28;20055;-71
2023/06/25 07:45:19;;;;;;;0.32;0.32;;;;;;;21.55;42.91;99771.75;5075937;28;20519;-71
2023/06/25 07:47:45;;;;;;;0.30;0.30;;;;;;;21.81;43.16;99776.13;5079765;28;20413;-70
2023/06/25 07:50:11;;;;;;;0.30;0.30;;;;;;;22.06;42.23;99776.84;5080656;28;20043;-70
2023/06/25 07:52:37;;;;;;;0.30;0.30;;;;;;;22.39;41.68;99773.00;5084736;28;20055;-70
2023/06/25 07:55:04;;;;;;;0.30;0.30;;;;;;;22.78;41.19;99786.38;5080025;28;20623;-70
2023/06/25 07:57:32;;;;;;;0.40;0.40;;;;;;;22.91;39.62;99780.72;5064487;28;20052;-71
2023/06/25 07:59:59;;;;;;;0.30;0.30;;;;;;;22.63;40.00;99778.81;5093095;28;20043;-71
2023/06/25 08:02:25;;;;;;;0.30;0.30;;;;;;;22.57;39.83;99774.69;5066405;28;20059;-70
2023/06/25 08:04:51;;;;;;;0.30;0.30;;;;;;;22.89;39.40;99769.13;5102241;28;20051;-71
2023/06/25 08:07:17;;;;;;;0.30;0.30;;;;;;;23.20;39.35;99771.09;5083216;28;20055;-70
2023/06/25 08:09:44;;;;;;;0.30;0.30;;;;;;;23.55;38.65;99768.72;5082500;28;20894;-70
2023/06/25 08:12:14;;;;;;;0.30;0.30;;;;;;;24.01;37.82;99765.31;5082766;28;20072;-70
2023/06/25 08:14:41;;;;;;;0.40;0.40;;;;;;;23.91;36.33;99761.94;5086940;28;20085;-70
2023/06/25 08:17:07;;;;;;;0.30;0.30;;;;;;;23.72;38.01;99765.53;5101805;28;20050;-70
2023/06/25 08:19:33;;;;;;;0.30;0.30;;;;;;;24.11;37.51;99763.94;5081989;28;20047;-71
2023/06/25 08:22:00;;;;;;;0.30;0.30;;;;;;;24.33;36.13;99759.59;5082993;28;20551;-71
2023/06/25 08:24:26;;;;;;;0.40;0.40;;;;;;;24.64;35.31;99755.78;5065507;28;20700;-70
2023/06/25 08:26:52;;;;;;;0.40;0.40;;;;;;;25.08;35.34;99753.75;5099696;28;20056;-71
2023/06/25 08:29:18;;;;;;;0.40;0.40;;;;;;;25.35;34.41;99754.56;5078633;28;20416;-71
2023/06/25 08:31:46;;;;;;;0.40;0.40;;;;;;;25.45;33.95;99752.31;5097927;28;20054;-70
2023/06/25 08:34:12;;;;;;;0.40;0.40;;;;;;;25.51;34.20;99753.59;5096991;28;20134;-70
2023/06/25 08:36:38;;;;;;;0.40;0.40;;;;;;;25.38;32.84;99752.19;5097193;28;20134;-71
2023/06/25 08:39:04;;;;;;;0.40;0.40;;;;;;;25.47;32.63;99749.94;5103197;28;20056;-70
2023/06/25 08:41:30;;;;;;;0.40;0.40;;;;;;;25.71;32.20;99734.69;5103407;28;20046;-71
2023/06/25 08:43:57;;;;;;;0.40;0.40;;;;;;;25.59;32.78;99748.91;5070752;28;20101;-71
2023/06/25 08:46:25;;;;;;;0.40;0.40;;;;;;;25.83;32.77;99744.00;5084169;28;20142;-72
2023/06/25 08:48:54;;;;;;;0.43;0.43;;;;;;;26.19;32.17;99739.69;5095323;28;20056;-71
2023/06/25 08:51:23;;;;;;;0.43;0.43;;;;;;;26.37;31.49;99741.88;5084169;28;20044;-71
2023/06/25 08:53:49;;;;;;;0.40;0.40;;;;;;;26.38;31.70;99745.50;5064213;28;20541;-71
2023/06/25 08:56:16;;;;;;;0.50;0.50;;;;;;;26.70;31.25;99731.78;5084831;28;20058;-72
2023/06/25 08:58:42;;;;;;;;;;;;;;;27.12;32.06;99737.34;5081885;28;20051;-71
2023/06/25 09:01:09;;;;;;;0.40;0.40;;;;;;;27.43;30.36;99735.13;5079704;28;19928;-71
2023/06/25 09:03:35;;;;;;;0.50;0.50;;;;;;;27.67;29.65;99732.91;5081538;28;20114;-72
2023/06/25 09:06:11;;;;;;;0.60;0.60;;;;;;;27.79;29.51;99726.94;5081550;28;20067;-71
2023/06/25 09:08:39;;;;;;;0.50;0.50;;;;;;;28.21;28.50;99726.69;5082808;28;20075;-71
2023/06/25 09:11:06;;;;;;;0.60;0.60;;;;;;;28.09;28.51;99725.81;5083297;28;20059;-71
2023/06/25 09:13:32;;;;;;;0.50;0.50;;;;;;;28.34;28.55;99725.13;5080305;28;20507;-72
2023/06/25 09:16:02;;;;;;;0.60;0.60;;;;;;;28.43;28.21;99719.94;5081478;28;20298;-70
2023/06/25 09:18:32;;;;;;;0.60;0.60;;;;;;;28.80;27.33;99717.97;5063358;28;20082;-70
2023/06/25 09:21:01;;;;;;;0.50;0.50;;;;;;;29.24;27.11;99718.72;5074484;28;20045;-71
2023/06/25 09:23:29;;;;;;;0.50;0.50;;;;;;;29.12;27.00;99728.41;5061492;28;20048;-70
2023/06/25 09:25:56;;;;;;;0.60;0.60;;;;;;;29.20;26.83;99726.38;5093054;28;20048;-72
2023/06/25 09:28:22;;;;;;;0.52;0.52;;;;;;;29.28;26.15;99727.94;5080860;28;20052;-71
2023/06/25 09:30:49;;;;;;;0.60;0.60;;;;;;;28.78;27.05;99733.59;5084146;28;20048;-71
2023/06/25 09:33:16;;;;;;;0.70;0.70;;;;;;;28.58;27.10;99720.72;5078723;28;20482;-72
2023/06/25 09:35:42;;;;;;;0.70;0.70;;;;;;;28.65;27.18;99727.59;5083219;28;20131;-70
2023/06/25 09:38:08;;;;;;;0.70;0.70;;;;;;;28.56;28.18;99716.69;5085706;28;20051;-70
2023/06/25 09:40:36;;;;;;;0.70;0.70;;;;;;;28.94;26.89;99716.34;5086677;28;20032;-71
2023/06/25 09:43:06;;;;;;;0.70;0.70;;;;;;;29.37;26.76;99721.91;5093721;28;20086;-71
2023/06/25 09:45:34;;;;;;;0.70;0.70;;;;;;;29.90;25.27;99724.97;5105326;28;20060;-69
2023/06/25 09:48:01;;;;;;;0.60;0.60;;;;;;;30.39;25.90;99707.41;5105181;28;20043;-70
2023/06/25 09:50:35;;;;;;;0.80;0.80;;;;;;;31.12;24.92;99710.44;5106503;28;20043;-70
2023/06/25 09:53:04;;;;;;;0.75;0.75;;;;;;;31.33;23.80;99708.66;5094160;28;20572;-70
2023/06/25 09:55:34;;;;;;;0.80;0.80;;;;;;;30.95;24.21;99700.94;5076596;28;20051;-70
2023/06/25 09:58:03;;;;;;;0.80;0.80;;;;;;;31.05;24.78;99711.31;5088508;28;20097;-70
2023/06/25 10:00:32;;;;;;;0.80;0.80;;;;;;;30.53;24.60;99707.31;5088088;28;20525;-72
2023/06/25 10:02:58;;;;;;;0.80;0.80;;;;;;;29.82;25.60;99701.69;5084219;28;20531;-71
2023/06/25 10:05:25;;;;;;;0.77;0.77;;;;;;;29.06;26.72;99701.06;5085148;28;20597;-71
2023/06/25 10:07:51;;;;;;;;;;;;;;;29.01;27.57;99714.31;5087891;28;20055;-72
2023/06/25 10:10:21;;;;;;;0.80;0.80;;;;;;;29.46;26.85;99713.06;5087866;28;19928;-71
2023/06/25 10:12:52;;;;;;;0.80;0.80;;;;;;;29.51;26.10;99698.59;5090801;28;20071;-71
2023/06/25 10:15:29;;;;;;;2.17;1.98;;;;;;;30.00;31.35;99695.13;4734478;28;10000183;-71
2023/06/25 10:17:57;;;;;;;1.65;1.55;;;;;;;30.38;29.70;99700.97;5102210;28;20040;-71
2023/06/25 10:20:28;;;;;;;1.52;1.42;;;;;;;30.46;28.12;99692.47;5105663;28;20134;-71
2023/06/25 10:23:06;;;;;;;2.25;1.98;;;;;;;30.32;29.58;99697.00;5101146;28;20058;-71
2023/06/25 10:25:33;;;;;;;2.15;1.95;;;;;;;30.45;29.68;99682.41;5101344;28;20040;-71
2023/06/25 10:28:04;;;;;;;2.95;2.50;;;;;;;30.87;28.43;99688.13;5103254;28;20059;-71
2023/06/25 10:30:37;;;;;;;2.63;2.42;;;;;;;30.49;29.76;99677.53;5098462;28;20047;-71
2023/06/25 10:33:05;;;;;;;8.30;7.50;;;;;;;30.49;29.09;99683.94;5103217;28;20047;-71
2023/06/25 10:35:36;;;;;;;2.47;2.15;;;;;;;30.56;28.69;99680.28;5103394;28;20044;-71
2023/06/25 10:38:03;;;;;;;1.85;1.67;;;;;;;30.42;28.69;99678.38;5103521;28;20082;-71
2023/06/25 10:40:33;;;;;;;3.20;2.90;;;;;;;30.61;30.53;99687.50;5094096;28;20190;-72
2023/06/25 10:42:59;;;;;;;4.85;4.45;;;;;;;30.75;28.53;99680.94;5068256;28;20075;-72
2023/06/25 10:45:26;;;;;;;6.37;5.77;;;;;;;30.76;28.47;99676.94;5080376;28;20056;-71
2023/06/25 10:48:03;;;;;;;2.20;2.03;;;;;;;30.63;28.93;99694.38;5078609;28;20052;-71
2023/06/25 10:50:29;;;;;;;;;;;;;;;30.37;28.71;99684.47;5079096;28;20082;-72
2023/06/25 10:52:55;;;;;;;2.63;2.38;;;;;;;30.26;29.80;99681.72;5080594;28;19924;-71
2023/06/25 10:55:21;;;;;;;1.53;1.43;;;;;;;30.12;28.84;99674.94;5070200;28;20427;-72
2023/06/25 10:57:48;;;;;;;1.00;1.00;;;;;;;30.98;28.57;99678.31;5042482;28;20052;-72
2023/06/25 11:00:16;;;;;;;1.40;1.30;;;;;;;31.91;26.72;99677.69;5092379;28;20115;-71
2023/06/25 11:02:42;;;;;;;1.10;1.10;;;;;;;32.08;27.38;99684.31;5086900;28;20090;-69
2023/06/25 11:05:11;;;;;;;1.08;1.08;;;;;;;32.25;25.62;99684.47;5086044;28;20044;-71
2023/06/25 11:07:37;;;;;;;1.10;1.10;;;;;;;32.23;25.06;99675.63;5083513;28;20047;-71
2023/06/25 11:10:06;;;;;;;1.25;1.20;;;;;;;32.45;24.92;99683.78;5085633;28;20121;-70
2023/06/25 11:12:33;;;;;;;1.10;1.10;;;;;;;32.37;24.84;99675.44;5087798;28;20127;-71
2023/06/25 11:14:59;;;;;;;1.00;1.00;;;;;;;32.13;24.84;99677.41;5077886;28;20518;-72
2023/06/25 11:17:25;;;;;;;1.00;1.00;;;;;;;32.48;24.78;99680.91;5090776;28;20097;-71
2023/06/25 11:19:52;;;;;;;1.10;1.10;;;;;;;32.56;23.88;99681.59;5090982;28;20207;-71
2023/06/25 11:22:20;;;;;;;1.00;1.00;;;;;;;33.07;23.41;99670.22;5086294;28;20126;-71
2023/06/25 11:24:47;;;;;;;1.00;1.00;;;;;;;33.43;22.90;99670.75;5085036;28;20052;-71
2023/06/25 11:27:20;;;;;;;1.00;1.00;;;;;;;33.37;22.36;99674.09;5097337;28;20571;-69
2023/06/25 11:29:47;;;;;;;1.00;1.00;;;;;;;32.76;23.02;99675.19;5088649;28;20476;-69
2023/06/25 11:32:21;;;;;;;0.90;0.90;;;;;;;32.60;23.62;99665.34;5069629;28;20439;-70
2023/06/25 11:34:48;;;;;;;0.90;0.90;;;;;;;32.59;23.42;99666.59;5086451;28;20077;-71
2023/06/25 11:37:15;;;;;;;1.00;1.00;;;;;;;32.50;23.04;99669.19;5095011;28;20044;-71